Saturday, November 29, 2014
01:26 UTC
  |  Log In   |  Register Free
Airport Search:

Pedro Bay Airport
(4K0)

Pedro Bay Airport Diagram
No Airport Diagram Available

FAA data valid effective November 13, 2014 - January 08, 2015 (unless otherwise noted).

 
 
 
 
 
 
 
 
 
 
 
 
 
 

Current Aviation Weather for Pedro Bay Airport (4K0)

METAR data is unavailable for 4K0. The nearest METAR location is at PAIL (23.7 nm SW from 4K0).

The most recent METAR observation for PAIL was updated at: 0045
METAR Summary (Translated METAR)
PAIL
282353Z 04003KT 10SM BKN024 OVC047 02/M02 A3008 RMK AO2 SNB01E32 SLP191 P0000 60000 T00171017 10022 21011 58010
(23.7 nm SW from 4K0)
PAIL
282353Z 04003KT 10SM BKN024 OVC047 02/M02 A3008 RMK AO2 SNB01E32 SLP191 P0000 60000 T00171017 10022 21011 58010
(23.7 nm SW from 4K0)
TAF Summary (Translated TAF)
PAIL
281741Z 2818/2918 03007KT P6SM VCSH FEW030 OVC050 FM290000 05007KT 5SM -SN SCT015 BKN025 FM290900 VRB06KT 3SM -SN BR OVC015 FM291600 33005KT P6SM SCT015 BKN060
PAIL
281741Z 2818/2918 03007KT P6SM VCSH FEW030 OVC050 FM290000 05007KT 5SM -SN SCT015 BKN025 FM290900 VRB06KT 3SM -SN BR OVC015 FM291600 33005KT P6SM SCT015 BKN060
  Airport Weather Conditions for 4K0

Current weather conditions are
not available for 4K0


The nearest NOAA weather station
is at ILI, (23.7 nm SW from 4K0)
  
 Current Weather at ILI
34° F
Overcast
North winds at 6.9 mph
ILI NOAA Radar

Pressure: 30.08 in
Humidity: 85%
Wind: North at 6.9 MPH (6 KT)
Dew Point: 30.0°F
Visibility: 10.00 mi


Airport Weather Forecast for 4K0

Translated METAR and TAF for PAIL
Translated METAR for PAIL (0121 UTC 29 November 2014)
found at http://aviationweather.gov/adds/metars/
 
METAR text: PAIL 290053Z 01006KT 10SM BKN019 OVC024 01/M01 A3008 RMK AO2 SLP189 T00111011
Conditions at: PAIL (ILIAMNA , AK, US) observed 0053 UTC 29 November 2014
Temperature: 1.1°C (34°F)
Dewpoint: -1.1°C (30°F) [RH = 85%]
Pressure (altimeter): 30.08 inches Hg (1018.7 mb)
[Sea-level pressure: 1018.9 mb]
Winds: from the N (10 degrees) at 7 MPH (6 knots; 3.1 m/s)
Visibility: 10 or more miles (16+ km)
Ceiling: 1900 feet AGL
Clouds: broken clouds at 1900 feet AGL
overcast cloud deck at 2400 feet AGL
Weather: no significant weather observed at this time
Translated TAF for PAIL
Forecast for: PAIL (ILIAMNA , AK, US)
TAF Text: PAIL 282340Z 2900/2924 02005KT 5SM -SN SCT015 BKN025
Forecast period: 0000 to 0900 UTC 29 November 2014
Forecast type: FROM: standard forecast or significant change
Winds: from the NNE (20 degrees) at 6 MPH (5 knots; 2.6 m/s)
Visibility: 5 miles (8 km)
Ceiling: 2500 feet AGL
Clouds: scattered clouds at 1500 feet AGL
broken clouds at 2500 feet AGL
Weather: -SN  (light snow)
TAF Text: FM290900 VRB06KT 3SM -SN BR OVC015
Forecast period: 0900 to 1600 UTC 29 November 2014
Forecast type: FROM: standard forecast or significant change
Winds: variable direction winds at 7 MPH (6 knots; 3.1 m/s)
Visibility: 3 miles (5 km)
Ceiling: 1500 feet AGL
Clouds: overcast cloud deck at 1500 feet AGL
Weather: -SN BR  (light snow, mist)
TAF Text: FM291600 33006KT P6SM SCT015 BKN060
Forecast period: 1600 UTC 29 November 2014 to 0000 UTC 30 November 2014
Forecast type: FROM: standard forecast or significant change
Winds: from the NNW (330 degrees) at 7 MPH (6 knots; 3.1 m/s)
Visibility: 6 or more miles (10+ km)
Ceiling: 6000 feet AGL
Clouds: scattered clouds at 1500 feet AGL
broken clouds at 6000 feet AGL
Weather: no significant weather forecast for this period

Find All Airport Services Find A Hotel Find A Rental Car Find A Golf Course Find A Restaurant $100 Hamburger



FBO's on the Field
FBO Company Facility Photos Services Transportation Aviation Fuel Prices: Prices include tax
Catering Weather Repair Courtesy Rental Type 100LL JetA JetA+ MOGAS 8087
 
Add another FBO Facility Photos Catering Weather Repair Courtesy Rental Type 100LL JetA JetA+ MOGAS 8087
Services Transportation Aviation Fuel Prices: Prices include tax
There are no FBO's currently reporting fuel at 4K0. List your FBO now


model-print
model-print
model-print
model-print